VARNA current weather conditions

sailwx.info

Wind from 100 at 2 knots

Air temperature 7.0° C
Visibility: greater than 4.9 NM
Dewpoint 6.0° C
Present weather: Light rain.

Last reported at 2019-Jan-24 05:00 UTC.
Time now 2019-Jan-24 06:11 UTC

Location: N 43°13' E 027°49'.
View on Google Maps.

See reports from other nearby stations

  
Tides and Currents Weather Stations Pressure Air Temp Water Temp Dewpoint Dewpoint Depression Visibility Wind Speed Wind Dir Waves Ship Positions
date/time (UTC)wind fromknots sea level pressurealtimeterstation pressurevisibilityair tempwater tempwave heightnotes
2019-Jan-24 05:00 100 2 4.9 7.0 Light rain.
2019-Jan-24 04:30 120 5 5.4 8.0
2019-Jan-24 04:00 100 6 5.4 8.0
2019-Jan-24 03:30 110 6 5.4 7.0
2019-Jan-24 03:00 100 6 5.4 7.0
2019-Jan-24 02:30 120 6 5.4 7.0
2019-Jan-24 02:00 100 7 5.4 7.0
2019-Jan-24 01:30 090 6 5.4 7.0
2019-Jan-24 01:00 120 8 5.4 7.0
2019-Jan-24 00:30 070 2 5.4 8.0
2019-Jan-24 00:00 180 2 5.410.0
2019-Jan-23 23:30 5.4 9.0
2019-Jan-23 23:00 170 4 5.410.0
2019-Jan-23 22:30 5.410.0
2019-Jan-23 22:00 150 4 5.410.0
2019-Jan-23 21:30 070 5 5.4 8.0
2019-Jan-23 21:00 140 4 5.4 8.0
2019-Jan-23 20:30 090 4 5.4 9.0
2019-Jan-23 20:00 100 7 5.4 9.0
2019-Jan-23 19:30 100 7 5.4 8.0
2019-Jan-23 19:00 090 6 5.4 8.0
2019-Jan-23 18:30 100 7 4.3 7.0
2019-Jan-23 18:00 110 8 4.3 8.0
2019-Jan-23 17:30 120 7 4.9 9.0
2019-Jan-23 17:00 080 6 4.9 8.0
2019-Jan-23 16:30 5.4 8.0
2019-Jan-23 16:00 070 6 5.4 8.0
2019-Jan-23 15:30 090 7 5.4 9.0
2019-Jan-23 15:00 100 6 5.4 9.0
2019-Jan-23 14:30 250 4 5.411.0
2019-Jan-23 14:00 260 5 5.411.0
2019-Jan-23 13:30 240 6 5.412.0
2019-Jan-23 13:00 280 8 5.412.0
2019-Jan-23 12:30 260 6 5.412.0
2019-Jan-23 12:00 230 7 5.412.0
2019-Jan-23 11:30 170 5 5.412.0
2019-Jan-23 11:00 210 2 5.411.0
2019-Jan-23 10:30 180 6 5.412.0
2019-Jan-23 10:00 170 4 5.410.0
2019-Jan-23 09:30 5.4 9.0
2019-Jan-23 09:00 5.4 9.0
2019-Jan-23 08:30 4.9 9.0
2019-Jan-23 08:00 100 2 4.3 8.0
2019-Jan-23 07:30 080 2 3.2 8.0
2019-Jan-23 07:00 110 6 2.0 7.0 Mist.
2019-Jan-23 06:30 130 6 1.9 7.0 Mist.
2019-Jan-23 06:00 110 6 1.6 6.0 Mist.
2019-Jan-23 05:30 170 2 2.7 7.0 Mist.
2019-Jan-23 05:00 150 6 3.2 7.0
2019-Jan-23 04:30 120 6 2.7 6.0 Mist.
2019-Jan-23 04:00 130 11 3.8 6.0
2019-Jan-23 03:30 120 9 4.9 6.0 Drizzle.
2019-Jan-23 03:00 130 9 5.4 6.0 Light rain.
2019-Jan-23 02:30 130 11 5.4 6.0
2019-Jan-23 02:00 130 9 5.4 6.0
2019-Jan-23 01:30 120 8 5.4 6.0
2019-Jan-23 01:00 130 7 5.4 6.0
2019-Jan-23 00:30 130 7 5.4 6.0
2019-Jan-23 00:00 120 12 5.4 6.0
2019-Jan-22 23:30 130 7 5.4 6.0
2019-Jan-22 23:00 130 11 5.4 6.0
2019-Jan-22 22:30 130 11 5.4 6.0
2019-Jan-22 22:00 130 9 5.4 6.0
2019-Jan-22 21:30 130 9 5.4 6.0
2019-Jan-22 21:00 130 12 5.4 6.0
2019-Jan-22 20:30 140 8 5.4 6.0
2019-Jan-22 20:00 140 8 5.4 6.0
2019-Jan-22 19:30 140 8 5.4 6.0
2019-Jan-22 19:00 130 11 5.4 6.0
2019-Jan-22 18:30 130 9 5.4 5.0
2019-Jan-22 18:00 130 7 5.4 5.0
2019-Jan-22 17:30 130 8 5.4 5.0
2019-Jan-22 17:00 130 8 5.4 5.0
2019-Jan-22 16:30 130 8 5.4 5.0
2019-Jan-22 16:00 120 9 5.4 5.0
2019-Jan-22 15:30 120 11 5.4 5.0
2019-Jan-22 15:00 130 9 5.4 5.0
2019-Jan-22 14:30 130 11 5.4 5.0
2019-Jan-22 14:00 130 8 5.4 5.0
2019-Jan-22 13:30 130 9 5.4 5.0
2019-Jan-22 13:00 130 12 5.4 5.0
2019-Jan-22 12:30 130 13 5.4 5.0
2019-Jan-22 12:00 110 13 5.4 5.0
2019-Jan-22 11:30 120 9 5.4 5.0
2019-Jan-22 11:00 120 8 5.4 4.0
2019-Jan-22 10:30 120 8 5.4 4.0
2019-Jan-22 10:00 120 8 5.4 4.0
2019-Jan-22 09:30 110 8 5.4 4.0
2019-Jan-22 09:00 110 9 5.4 3.0
2019-Jan-22 08:30 110 8 5.4 3.0
2019-Jan-22 08:00 110 9 5.4 3.0
2019-Jan-22 07:30 100 7 5.4 3.0
2019-Jan-22 07:00 080 6 5.4 2.0
2019-Jan-22 06:30 090 6 5.4 2.0
2019-Jan-22 06:00 5.4 1.0